Time;durP1;ratioP1;P1;durP2;ratioP2;P2;SDS_P1;SDS_P2;PMS_P1;PMS_P2;Temp;Humidity;BMP_temperature;BMP_pressure;BME280_temperature;BME280_humidity;BME280_pressure;Samples;Min_cycle;Max_cycle;Signal;HPM_P1;HPM_P2
2020/12/30 00:02:06;;;;;;;4.25;3.85;;;4.60;50.40;;;;;;5075810;28;20303;-90
2020/12/30 00:04:52;;;;;;;3.53;3.23;;;5.20;51.10;;;;;;5066864;28;20632;-90
2020/12/30 00:07:18;;;;;;;3.55;2.92;;;5.10;51.30;;;;;;5056073;28;20163;-89
2020/12/30 00:09:58;;;;;;;5.03;4.13;;;5.10;50.50;;;;;;5056432;28;20528;-90
2020/12/30 00:12:27;;;;;;;4.28;3.88;;;5.00;51.50;;;;;;5062158;28;20252;-90
2020/12/30 00:15:15;;;;;;;6.72;3.35;;;5.20;51.60;;;;;;5076027;28;20171;-88
2020/12/30 00:17:42;;;;;;;5.03;4.55;;;5.00;52.20;;;;;;5076252;28;20171;-87
2020/12/30 00:20:11;;;;;;;4.85;4.35;;;5.10;51.60;;;;;;5076554;28;20533;-90
2020/12/30 00:22:37;;;;;;;5.85;3.72;;;5.50;52.30;;;;;;5077244;28;20242;-90
2020/12/30 00:28:34;;;;;;;4.70;4.15;;;5.00;51.80;;;;;;5077866;28;20149;-89
2020/12/30 00:31:00;;;;;;;4.75;3.63;;;4.90;51.40;;;;;;5076547;28;20181;-88
2020/12/30 00:33:26;;;;;;;4.27;3.87;;;4.40;51.40;;;;;;5063203;28;20359;-90
2020/12/30 01:13:17;;;;;;;3.55;3.17;;;5.20;54.40;;;;;;5099234;28;20319;-90
2020/12/30 01:15:42;;;;;;;3.60;3.20;;;5.50;53.30;;;;;;5082323;28;20275;-91
2020/12/30 01:18:11;;;;;;;5.60;4.17;;;5.90;53.50;;;;;;5082064;28;20199;-90
2020/12/30 01:20:36;;;;;;;5.78;4.25;;;6.00;52.60;;;;;;5082781;28;20621;-90
2020/12/30 01:23:02;;;;;;;5.10;4.60;;;5.70;52.10;;;;;;5082291;28;20148;-91
2020/12/30 01:25:28;;;;;;;4.80;4.30;;;5.90;52.00;;;;;;5081827;28;20185;-90
2020/12/30 01:27:55;;;;;;;4.87;4.47;;;5.60;51.30;;;;;;5082274;28;20161;-90
2020/12/30 01:30:21;;;;;;;4.10;3.80;;;5.80;51.20;;;;;;5081069;28;20517;-90
2020/12/30 01:32:55;;;;;;;8.43;5.40;;;6.10;51.10;;;;;;5082332;28;20355;-91
2020/12/30 01:35:21;;;;;;;5.38;4.53;;;5.80;49.90;;;;;;5081752;28;20160;-91
2020/12/30 01:37:46;;;;;;;4.97;3.70;;;5.50;49.30;;;;;;5081677;28;20218;-91
2020/12/30 01:40:12;;;;;;;4.70;4.33;;;6.00;49.40;;;;;;5081469;28;20209;-91
2020/12/30 01:42:46;;;;;;;5.83;3.97;;;5.50;48.80;;;;;;5081137;28;20221;-90
2020/12/30 01:45:54;;;;;;;5.72;4.85;;;5.80;48.80;;;;;;5081095;28;20486;-89
2020/12/30 01:48:23;;;;;;;7.05;5.35;;;6.00;49.80;;;;;;5081127;28;20175;-92
2020/12/30 01:50:49;;;;;;;6.25;4.78;;;5.30;49.50;;;;;;5081403;28;20631;-90
2020/12/30 01:53:59;;;;;;;6.20;3.13;;;5.80;51.20;;;;;;5081633;28;20611;-91
2020/12/30 01:56:30;;;;;;;3.90;3.50;;;5.50;51.80;;;;;;5081445;28;20188;-90
2020/12/30 01:58:56;;;;;;;6.22;3.83;;;5.50;50.80;;;;;;5080208;28;20168;-90
2020/12/30 02:01:27;;;;;;;3.43;3.13;;;5.00;50.40;;;;;;5081057;28;20169;-91
2020/12/30 02:03:56;;;;;;;4.10;3.65;;;5.90;50.40;;;;;;5080710;28;20169;-91
2020/12/30 02:06:55;;;;;;;3.88;3.58;;;5.90;50.20;;;;;;5080797;28;20185;-91
2020/12/30 02:09:21;;;;;;;4.43;3.70;;;5.80;50.60;;;;;;5080812;28;20247;-90
2020/12/30 02:11:49;;;;;;;4.07;3.60;;;5.20;49.10;;;;;;5080877;28;20229;-90
2020/12/30 02:14:15;;;;;;;4.78;4.25;;;5.70;49.40;;;;;;5080043;28;20169;-91
2020/12/30 02:16:48;;;;;;;4.13;3.80;;;5.70;49.40;;;;;;5080303;28;20183;-91
2020/12/30 02:19:14;;;;;;;3.35;3.08;;;5.60;49.80;;;;;;5081017;28;20422;-91
2020/12/30 02:22:05;;;;;;;3.80;3.50;;;6.00;49.70;;;;;;5081430;28;20169;-91
2020/12/30 02:24:31;;;;;;;5.90;4.00;;;5.40;50.10;;;;;;5081093;28;20387;-90
2020/12/30 02:26:59;;;;;;;4.47;4.07;;;5.30;50.70;;;;;;5079796;28;20157;-90
2020/12/30 02:30:02;;;;;;;5.53;4.25;;;5.00;50.30;;;;;;5079843;28;20157;-89
2020/12/30 02:32:28;;;;;;;4.72;4.32;;;5.30;51.20;;;;;;5080111;28;20153;-89
2020/12/30 02:34:53;;;;;;;4.60;4.17;;;4.90;51.00;;;;;;5080858;28;20535;-90
2020/12/30 02:37:45;;;;;;;5.83;4.53;;;4.50;51.10;;;;;;5081151;28;20576;-91
2020/12/30 02:40:10;;;;;;;7.88;4.70;;;5.60;52.70;;;;;;5080067;28;20643;-88
2020/12/30 02:42:36;;;;;;;7.20;4.50;;;4.60;51.20;;;;;;5080095;28;20169;-90
2020/12/30 02:45:35;;;;;;;5.37;4.23;;;4.90;51.10;;;;;;5080014;28;20184;-88
2020/12/30 02:48:01;;;;;;;5.65;4.55;;;5.20;51.40;;;;;;5079765;28;20173;-88
2020/12/30 02:50:26;;;;;;;6.00;5.00;;;5.20;50.50;;;;;;5080137;28;20222;-88
2020/12/30 02:53:18;;;;;;;4.60;4.10;;;5.10;50.80;;;;;;5080090;28;20526;-88
2020/12/30 03:12:15;;;;;;;3.83;3.50;;;4.60;52.70;;;;;;5038158;28;20157;-90
2020/12/30 03:14:42;;;;;;;4.13;3.40;;;4.50;52.10;;;;;;5020375;28;20544;-90
2020/12/30 03:17:08;;;;;;;5.03;3.65;;;4.20;50.90;;;;;;5020376;28;20863;-90
2020/12/30 03:19:33;;;;;;;3.80;3.50;;;4.20;50.70;;;;;;5020585;28;20167;-90
2020/12/30 03:22:04;;;;;;;6.00;4.03;;;5.00;51.40;;;;;;5020440;28;20428;-91
2020/12/30 03:24:30;;;;;;;5.60;5.00;;;4.20;50.50;;;;;;5020665;28;20186;-90
2020/12/30 03:30:12;;;;;;;6.40;4.30;;;5.00;51.80;;;;;;5038500;28;20213;-91
2020/12/30 03:32:44;;;;;;;5.50;4.07;;;4.70;51.20;;;;;;5020555;28;20175;-91
2020/12/30 03:35:10;;;;;;;4.70;4.30;;;4.20;51.30;;;;;;5020302;28;20261;-91
2020/12/30 03:37:35;;;;;;;5.03;4.53;;;4.50;51.40;;;;;;5019445;28;20210;-90
2020/12/30 03:40:01;;;;;;;5.67;4.90;;;4.00;51.00;;;;;;5018338;28;20582;-91
2020/12/30 03:42:28;;;;;;;3.77;3.37;;;5.10;51.20;;;;;;5018523;28;20167;-90
2020/12/30 03:44:54;;;;;;;5.22;4.70;;;4.50;51.30;;;;;;5018402;28;20174;-90
2020/12/30 03:47:48;;;;;;;4.83;4.43;;;4.40;51.70;;;;;;5019813;28;20163;-90
2020/12/30 03:50:14;;;;;;;4.32;3.92;;;4.40;52.10;;;;;;5019703;28;20155;-90
2020/12/30 03:53:34;;;;;;;6.93;5.00;;;4.60;51.20;;;;;;5019597;28;20167;-90
2020/12/30 03:55:59;;;;;;;3.40;3.10;;;4.50;52.50;;;;;;5018947;28;20171;-89
2020/12/30 03:58:25;;;;;;;4.83;3.10;;;4.20;51.50;;;;;;5018819;28;20159;-90
2020/12/30 04:01:45;;;;;;;4.50;3.53;;;4.20;51.10;;;;;;5019452;28;20170;-89
2020/12/30 04:04:13;;;;;;;4.43;4.03;;;4.60;52.10;;;;;;5019647;28;20266;-89
2020/12/30 04:06:39;;;;;;;3.97;3.22;;;4.10;50.80;;;;;;5019538;28;20248;-89
2020/12/30 04:09:05;;;;;;;3.92;3.63;;;4.70;51.30;;;;;;5018764;28;20175;-89
2020/12/30 04:11:39;;;;;;;4.67;4.20;;;4.00;50.80;;;;;;5018957;28;20712;-90
2020/12/30 04:14:04;;;;;;;5.47;3.72;;;4.60;51.30;;;;;;5019467;28;20175;-89
2020/12/30 04:16:30;;;;;;;5.00;3.40;;;4.30;51.10;;;;;;5020077;28;20582;-90
2020/12/30 04:18:56;;;;;;;3.47;3.17;;;4.60;51.30;;;;;;5019999;28;20552;-90
2020/12/30 04:21:23;;;;;;;3.33;3.03;;;4.60;51.20;;;;;;5020117;28;20459;-91
2020/12/30 04:23:50;;;;;;;4.13;3.50;;;4.10;50.80;;;;;;5019987;28;20175;-89
2020/12/30 04:27:02;;;;;;;3.55;3.25;;;4.40;51.10;;;;;;5018904;28;20253;-88
2020/12/30 04:29:28;;;;;;;4.80;3.00;;;4.80;52.00;;;;;;5019611;28;20224;-90
2020/12/30 04:32:14;;;;;;;4.43;4.00;;;4.90;51.50;;;;;;5019773;28;20163;-90
2020/12/30 04:34:40;;;;;;;3.03;2.80;;;4.90;51.70;;;;;;5020150;28;20174;-91
2020/12/30 04:37:06;;;;;;;4.10;3.30;;;4.50;51.00;;;;;;5020311;28;20167;-91
2020/12/30 04:42:58;;;;;;;3.20;2.95;;;5.00;50.90;;;;;;5038865;28;20150;-90
2020/12/30 04:45:26;;;;;;;4.13;3.50;;;4.70;49.70;;;;;;5035888;28;20325;-89
2020/12/30 04:47:55;;;;;;;5.25;3.45;;;5.30;50.20;;;;;;5018695;28;20174;-90
2020/12/30 04:50:22;;;;;;;3.33;3.05;;;5.10;49.90;;;;;;5018814;28;20221;-90
2020/12/30 04:53:18;;;;;;;4.75;3.53;;;4.40;49.60;;;;;;5036482;28;20170;-88
2020/12/30 04:55:47;;;;;;;4.32;3.92;;;4.90;50.90;;;;;;5017811;28;20587;-88
2020/12/30 04:58:16;;;;;;;5.40;4.25;;;4.60;50.60;;;;;;5018857;28;20266;-90
2020/12/30 05:01:06;;;;;;;4.93;3.47;;;4.70;51.00;;;;;;5019074;28;20169;-89
2020/12/30 05:03:37;;;;;;;3.72;3.08;;;4.70;51.20;;;;;;5018752;28;20220;-88
2020/12/30 05:06:17;;;;;;;3.33;3.03;;;4.70;50.40;;;;;;5018910;28;20201;-88
2020/12/30 05:08:43;;;;;;;5.40;3.00;;;4.20;49.90;;;;;;4999437;28;20234;-89
2020/12/30 05:11:09;;;;;;;5.00;4.00;;;4.50;50.10;;;;;;4999167;28;20163;-89
2020/12/30 05:13:53;;;;;;;5.00;3.90;;;4.50;50.40;;;;;;4999225;28;20254;-89
2020/12/30 05:16:20;;;;;;;7.20;4.55;;;4.90;50.70;;;;;;4999166;28;20167;-88
2020/12/30 05:19:14;;;;;;;4.90;3.95;;;4.10;50.40;;;;;;4998950;28;20207;-88
2020/12/30 05:21:39;;;;;;;4.97;4.47;;;4.70;51.60;;;;;;4994837;28;20168;-90
2020/12/30 05:24:06;;;;;;;4.50;4.10;;;4.40;50.60;;;;;;4999932;28;20179;-88
2020/12/30 05:27:16;;;;;;;4.25;3.85;;;4.60;50.60;;;;;;5003136;28;20195;-89
2020/12/30 05:29:50;;;;;;;6.20;4.45;;;4.50;50.80;;;;;;5017925;28;20247;-87
2020/12/30 05:32:17;;;;;;;8.18;4.28;;;4.20;49.70;;;;;;5000933;28;20219;-88
2020/12/30 05:35:20;;;;;;;4.75;3.83;;;5.20;50.30;;;;;;5002030;28;20167;-89
2020/12/30 05:37:46;;;;;;;5.18;3.95;;;4.60;50.60;;;;;;5001097;28;20163;-88
2020/12/30 05:40:33;;;;;;;5.30;4.05;;;4.40;49.90;;;;;;5000744;28;20160;-87
2020/12/30 05:43:16;;;;;;;4.25;3.70;;;4.20;50.30;;;;;;5001776;28;20168;-88
2020/12/30 05:46:29;;;;;;;3.90;3.50;;;4.50;50.40;;;;;;5001608;28;20552;-88
2020/12/30 05:49:08;;;;;;;3.42;3.08;;;4.60;51.50;;;;;;5013240;28;20168;-88
2020/12/30 05:51:34;;;;;;;6.20;4.55;;;3.90;50.60;;;;;;5002149;28;20174;-88
2020/12/30 05:54:13;;;;;;;6.50;4.37;;;4.30;51.00;;;;;;5001942;28;20164;-88
2020/12/30 05:56:39;;;;;;;4.53;3.92;;;4.40;51.90;;;;;;5002300;28;20266;-87
2020/12/30 05:59:06;;;;;;;6.53;4.38;;;4.20;51.70;;;;;;5001542;28;20175;-89
2020/12/30 06:01:55;;;;;;;3.85;3.50;;;4.60;51.70;;;;;;5001075;28;20167;-89
2020/12/30 06:04:21;;;;;;;4.70;3.80;;;4.30;51.40;;;;;;5019396;28;20156;-89
2020/12/30 06:06:52;;;;;;;6.57;3.93;;;4.40;51.00;;;;;;5000898;28;20229;-89
2020/12/30 06:09:19;;;;;;;7.68;3.70;;;4.40;51.00;;;;;;5018229;28;20254;-88
2020/12/30 06:11:53;;;;;;;5.68;4.72;;;4.90;51.40;;;;;;5001757;28;20611;-88
2020/12/30 06:14:21;;;;;;;3.83;3.28;;;4.20;50.90;;;;;;5001626;28;20163;-88
2020/12/30 06:16:47;;;;;;;7.57;4.15;;;3.90;51.00;;;;;;5000936;28;20230;-87
2020/12/30 06:19:16;;;;;;;4.90;4.40;;;4.10;50.80;;;;;;5000367;28;20263;-89
2020/12/30 06:21:46;;;;;;;6.10;4.57;;;4.40;51.20;;;;;;5000947;28;20192;-89
2020/12/30 06:24:18;;;;;;;4.50;4.10;;;4.00;51.00;;;;;;5001240;28;20172;-89
2020/12/30 06:26:44;;;;;;;4.10;3.70;;;4.40;51.80;;;;;;5001044;28;20200;-90
2020/12/30 06:29:20;;;;;;;4.80;4.40;;;4.90;52.00;;;;;;5001397;28;20175;-89
2020/12/30 06:31:49;;;;;;;5.57;4.80;;;3.90;51.30;;;;;;5001733;28;20900;-88
2020/12/30 06:34:16;;;;;;;4.40;3.90;;;4.50;51.70;;;;;;5000856;28;20637;-89
2020/12/30 06:36:43;;;;;;;5.28;4.78;;;4.30;51.50;;;;;;5000864;28;20167;-89
2020/12/30 06:39:27;;;;;;;4.10;3.70;;;4.60;52.10;;;;;;5000997;28;20700;-92
2020/12/30 06:41:58;;;;;;;6.45;5.43;;;4.60;51.40;;;;;;5002000;28;20186;-90
2020/12/30 06:47:57;;;;;;;6.65;4.10;;;4.30;51.90;;;;;;5019210;28;20291;-90
2020/12/30 06:50:41;;;;;;;4.65;4.20;;;4.50;51.40;;;;;;5018240;28;20156;-90
2020/12/30 06:53:26;;;;;;;6.72;4.82;;;4.50;50.80;;;;;;5000616;28;20163;-89
2020/12/30 06:56:43;;;;;;;6.85;5.85;;;3.90;50.60;;;;;;5001176;28;20159;-89
2020/12/30 06:59:14;;;;;;;4.90;4.50;;;4.60;51.80;;;;;;5018255;28;20219;-90
2020/12/30 07:02:36;;;;;;;21.00;10.90;;;4.10;50.30;;;;;;5000644;28;20163;-91
2020/12/30 07:05:53;;;;;;;21.87;13.20;;;4.10;50.90;;;;;;4983081;28;20435;-92
2020/12/30 07:12:04;;;;;;;10.02;8.07;;;4.10;51.10;;;;;;5038991;28;20175;-92
2020/12/30 07:14:31;;;;;;;10.02;6.85;;;4.10;51.60;;;;;;5020303;28;20633;-90
2020/12/30 07:17:05;;;;;;;5.88;5.20;;;3.60;50.40;;;;;;5021895;28;20171;-91
2020/12/30 07:19:36;;;;;;;10.73;7.10;;;4.00;50.80;;;;;;5020770;28;20171;-90
2020/12/30 07:22:11;;;;;;;7.22;6.35;;;3.60;50.20;;;;;;5020650;28;20163;-90
2020/12/30 07:24:51;;;;;;;9.38;7.10;;;4.10;50.80;;;;;;5021486;28;20266;-91
2020/12/30 07:28:10;;;;;;;9.30;7.72;;;3.90;51.40;;;;;;5021008;28;20544;-90
2020/12/30 07:30:36;;;;;;;7.00;5.65;;;4.10;51.20;;;;;;5037577;28;20156;-90
2020/12/30 07:33:22;;;;;;;7.50;5.23;;;4.00;50.50;;;;;;5020752;28;20159;-89
2020/12/30 07:35:47;;;;;;;4.80;4.40;;;4.00;50.80;;;;;;5020101;28;20587;-89
2020/12/30 07:38:14;;;;;;;7.47;5.57;;;3.70;49.90;;;;;;5020280;28;20201;-89
2020/12/30 07:41:08;;;;;;;8.97;7.13;;;3.60;49.70;;;;;;5021553;28;20421;-90
2020/12/30 07:43:48;;;;;;;11.52;7.43;;;4.00;50.40;;;;;;5013232;28;20422;-89
2020/12/30 07:46:17;;;;;;;6.57;5.90;;;3.80;50.50;;;;;;5003464;28;20199;-91
2020/12/30 07:54:41;;;;;;;8.75;7.78;;;4.30;50.70;;;;;;5001172;28;20830;-89
2020/12/30 07:57:12;;;;;;;12.45;8.88;;;4.20;50.80;;;;;;4997320;28;20211;-90
2020/12/30 07:59:47;;;;;;;9.93;8.43;;;4.00;49.50;;;;;;4997357;28;20180;-89
2020/12/30 08:02:16;;;;;;;12.68;10.13;;;4.00;49.40;;;;;;4996595;28;20175;-89
2020/12/30 08:04:45;;;;;;;11.85;10.30;;;3.60;49.10;;;;;;4980179;28;20219;-88
2020/12/30 08:07:15;;;;;;;8.00;7.20;;;4.00;49.70;;;;;;4985752;28;20419;-88
2020/12/30 08:09:43;;;;;;;7.63;6.82;;;3.90;50.90;;;;;;4998445;28;20258;-88
2020/12/30 08:12:11;;;;;;;6.13;5.28;;;4.00;51.10;;;;;;5015969;28;20526;-91
2020/12/30 08:14:48;;;;;;;7.28;6.57;;;4.50;51.10;;;;;;5017309;28;20203;-91
2020/12/30 08:17:15;;;;;;;8.95;8.02;;;4.10;50.60;;;;;;5016141;28;20622;-90
2020/12/30 08:19:45;;;;;;;10.23;8.30;;;4.50;51.20;;;;;;5015947;28;20243;-89
2020/12/30 08:22:24;;;;;;;16.75;7.70;;;3.70;50.50;;;;;;5016362;28;20176;-89
2020/12/30 08:25:20;;;;;;;5.75;4.88;;;4.40;51.00;;;;;;5015570;28;20183;-89
2020/12/30 08:27:47;;;;;;;5.53;5.03;;;4.30;51.80;;;;;;5015775;28;20741;-88
2020/12/30 08:30:13;;;;;;;5.80;4.72;;;4.40;51.00;;;;;;5014819;28;20179;-86
2020/12/30 08:32:52;;;;;;;4.60;3.80;;;4.20;51.10;;;;;;5015230;28;20603;-86
2020/12/30 08:35:31;;;;;;;4.13;3.67;;;4.30;52.10;;;;;;5013555;28;20769;-88
2020/12/30 08:38:17;;;;;;;4.68;3.30;;;4.40;51.90;;;;;;5015084;28;20156;-88
2020/12/30 08:40:50;;;;;;;4.53;4.13;;;4.00;50.70;;;;;;5014180;28;20171;-88
2020/12/30 08:43:59;;;;;;;4.57;4.00;;;4.70;51.30;;;;;;5013413;28;20182;-86
2020/12/30 08:46:26;;;;;;;4.90;4.43;;;4.40;51.90;;;;;;5013849;28;20206;-87
2020/12/30 08:48:53;;;;;;;4.97;4.57;;;4.30;50.90;;;;;;5013584;28;20195;-87
2020/12/30 08:51:46;;;;;;;6.25;5.65;;;4.80;51.40;;;;;;5015840;28;20630;-88
2020/12/30 08:54:16;;;;;;;8.70;5.10;;;5.00;52.60;;;;;;5013827;28;20183;-88
2020/12/30 08:57:00;;;;;;;5.60;4.95;;;4.70;53.10;;;;;;4998064;28;20182;-88
2020/12/30 08:59:26;;;;;;;4.47;4.07;;;5.80;52.70;;;;;;5000906;28;20717;-87
2020/12/30 09:04:20;;;;;;;5.63;5.03;;;5.50;52.80;;;;;;5017595;28;20677;-87
2020/12/30 09:06:50;;;;;;;7.20;5.80;;;5.10;51.70;;;;;;5001357;28;20199;-86
2020/12/30 09:09:19;;;;;;;6.88;5.78;;;5.80;52.20;;;;;;5000940;28;20217;-86
2020/12/30 09:11:47;;;;;;;6.93;6.22;;;5.30;51.70;;;;;;5001631;28;20164;-89
2020/12/30 09:14:18;;;;;;;7.10;6.03;;;6.20;50.60;;;;;;5001540;28;20254;-88
2020/12/30 09:16:54;;;;;;;6.35;5.75;;;5.70;51.70;;;;;;5002283;28;20234;-88
2020/12/30 09:19:20;;;;;;;6.70;5.80;;;6.50;54.20;;;;;;5002902;28;20172;-88
2020/12/30 09:21:46;;;;;;;6.17;5.57;;;6.70;53.60;;;;;;5001633;28;20187;-87
2020/12/30 09:24:14;;;;;;;5.43;4.93;;;7.10;53.80;;;;;;5002644;28;20407;-88
2020/12/30 09:26:40;;;;;;;8.35;6.57;;;7.30;50.90;;;;;;5002869;28;20199;-87
2020/12/30 09:29:38;;;;;;;5.97;5.37;;;7.20;50.10;;;;;;5001496;28;20251;-88
2020/12/30 09:32:07;;;;;;;5.65;5.13;;;7.50;50.00;;;;;;5005350;28;20407;-89
2020/12/30 09:34:33;;;;;;;6.93;6.28;;;7.00;48.50;;;;;;5002716;28;20168;-87
2020/12/30 09:37:01;;;;;;;7.73;7.00;;;7.50;48.80;;;;;;5001580;28;20614;-93
2020/12/30 09:39:28;;;;;;;6.30;5.68;;;7.60;49.20;;;;;;5001299;28;20172;-87
2020/12/30 09:42:04;;;;;;;5.05;4.65;;;7.20;47.60;;;;;;5001261;28;20172;-87
2020/12/30 09:44:30;;;;;;;5.45;5.03;;;7.70;47.90;;;;;;5001144;28;20172;-87
2020/12/30 09:47:19;;;;;;;5.37;4.87;;;7.70;47.50;;;;;;5001478;28;20210;-86
2020/12/30 09:49:45;;;;;;;6.05;4.55;;;7.70;47.10;;;;;;5000641;28;20406;-87
2020/12/30 09:52:10;;;;;;;5.27;4.77;;;7.80;46.60;;;;;;5018659;28;20239;-87
2020/12/30 09:54:36;;;;;;;5.03;4.63;;;8.00;47.00;;;;;;5000133;28;20614;-82
2020/12/30 09:57:02;;;;;;;5.67;4.80;;;8.00;46.20;;;;;;4999821;28;20206;-85
2020/12/30 09:59:29;;;;;;;6.50;4.43;;;8.00;46.20;;;;;;5001395;28;20411;-87
2020/12/30 10:01:58;;;;;;;9.73;7.18;;;8.00;48.10;;;;;;4999792;28;20299;-82
2020/12/30 10:04:39;;;;;;;13.32;9.45;;;8.30;48.60;;;;;;4999430;28;20214;-84
2020/12/30 10:07:04;;;;;;;6.50;5.55;;;8.60;45.70;;;;;;5000238;28;20270;-86
2020/12/30 10:09:45;;;;;;;6.37;5.00;;;7.80;44.70;;;;;;5000552;28;20202;-87
2020/12/30 10:12:10;;;;;;;5.75;4.50;;;8.30;44.70;;;;;;5000367;28;20183;-87
2020/12/30 10:14:42;;;;;;;7.20;5.17;;;8.40;44.60;;;;;;5000744;28;20183;-86
2020/12/30 10:17:08;;;;;;;5.97;5.38;;;8.60;44.60;;;;;;5000527;28;20633;-88
2020/12/30 10:19:39;;;;;;;4.85;4.43;;;8.60;44.70;;;;;;4999749;28;20199;-88
2020/12/30 10:22:07;;;;;;;4.65;4.25;;;8.70;44.80;;;;;;4999438;28;20279;-89
2020/12/30 10:24:36;;;;;;;7.95;5.30;;;9.00;44.70;;;;;;4999452;28;20234;-88
2020/12/30 10:27:03;;;;;;;7.15;4.68;;;8.90;44.00;;;;;;5000021;28;20615;-88
2020/12/30 10:29:31;;;;;;;7.20;5.30;;;9.10;44.00;;;;;;4996896;28;20164;-88
2020/12/30 10:31:58;;;;;;;4.57;4.18;;;9.30;43.00;;;;;;5000452;28;20160;-89
